Terminal Aerodrome Forecast
Issued by NWS Duluth, MN

Home | Current Version | Previous Version | Text Only | Print | Product List | Glossary On
Versions: 1 2 3 4 5 6 7 8 9 10 11 12 13 14 15 16 17 18 19 20
000
FTUS43 KDLH 250535
TAFINL
TAF
KINL 250535Z 2506/2606 33009KT P6SM SCT025
     FM251000 30010KT P6SM SCT050
     FM252000 28010G16KT P6SM VCSH BKN050
     FM260000 27005KT 6SM -SN OVC050=

USA.gov is the U.S. government's official web portal to all federal, state and local government web resources and services.